Página principal
METAR-TAF:

METAR-TAF

Aeroportos :

Aeroporto de Yakutsk

Yakutsk, Rússia

latitude: 62-01N, longitude: 129-43E, altura: 103 m

Observação actual do tempo

O boletim foi feito há 1 hora e 7 minutos, às 00:30 UTC
Vento 4 kt de oes-noroeste
Temperatura 5°C
Humidade 70%
Pressão 1012 hPa
Visibilidade 10 km ou mais
sem nuvens abaixo de 1500 metros e sem cumulonimbus

METAR: UEEE 200030Z 30002MPS CAVOK 05/M00 Q1012 R23L/09//60 NOSIG RMK QFE751

Hora: 10:37 (01:37 UTC)

Previsão

O boletim foi feito há 2 horas e 37 minutos, às 23:00 UTC
Previsão válida de 20 às 00 UTC a 21 às 06 UTC
Vento 10 kt de noroeste com rajadas de 19 kt
Visibilidade 10 km ou mais
sem nuvens abaixo de 1500 metros e sem cumulonimbus

TAF: UEEE 192300Z 2000/2106 31005G10MPS CAVOK

Observações e previsões do tempo de mais de 4000 aeroportos (mensagens METAR e TAF).

As estações disponíveis são os pontos amarelos e vermelhos sobre o mapa.

Mova o rato sobre o mapa para ver o nome da estação.

Depois clique no ponto para visualizar as observações e previsões meteorológicas.

Para alterar o mapa : clique nos botões verdes com uma cruz preta para aumentar o zoom; no botão verde com uma pitada de zoom; ou nas setas verdes para mapas adjacentes.


METAR-TAF: